Time;durP1;ratioP1;P1;durP2;ratioP2;P2;SDS_P1;SDS_P2;PMS_P1;PMS_P2;Temp;Humidity;BMP_temperature;BMP_pressure;BME280_temperature;BME280_humidity;BME280_pressure;Samples;Min_cycle;Max_cycle;Signal;HPM_P1;HPM_P2
2023/12/07 00:00:34;;;;;;;13.02;6.68;;;;;;;3.16;100.00;101861.31;4822639;29;20520;-66
2023/12/07 00:03:22;;;;;;;10.65;6.10;;;;;;;3.17;100.00;101854.06;4823334;29;20125;-65
2023/12/07 00:06:10;;;;;;;12.38;6.22;;;;;;;3.15;100.00;101854.28;4822918;29;20133;-65
2023/12/07 00:09:00;;;;;;;9.38;6.00;;;;;;;3.15;100.00;101858.81;4798734;29;20450;-65
2023/12/07 00:11:48;;;;;;;10.30;6.20;;;;;;;3.16;100.00;101860.50;4837558;29;20054;-65
2023/12/07 00:14:36;;;;;;;10.85;6.82;;;;;;;3.18;100.00;101859.28;4840382;29;20054;-66
2023/12/07 00:17:24;;;;;;;9.95;6.85;;;;;;;3.20;100.00;101859.09;4830105;29;20183;-66
2023/12/07 00:20:12;;;;;;;11.35;7.00;;;;;;;3.21;100.00;101863.44;4821277;29;20053;-68
2023/12/07 00:23:00;;;;;;;11.52;6.88;;;;;;;3.14;100.00;101862.53;4811009;29;20046;-66
2023/12/07 00:25:49;;;;;;;11.50;6.90;;;;;;;3.05;100.00;101859.13;4822372;29;20051;-68
2023/12/07 00:28:36;;;;;;;12.18;7.05;;;;;;;2.98;100.00;101853.72;4838192;29;20045;-67
2023/12/07 00:31:24;;;;;;;11.43;6.78;;;;;;;2.93;100.00;101855.28;4840044;29;20042;-65
2023/12/07 00:34:12;;;;;;;12.27;7.00;;;;;;;2.89;100.00;101849.47;4839149;29;20054;-65
2023/12/07 00:37:00;;;;;;;11.52;6.90;;;;;;;2.88;100.00;101850.47;4820762;29;20039;-66
2023/12/07 00:39:48;;;;;;;13.90;7.30;;;;;;;2.86;100.00;101854.38;4834428;29;20053;-65
2023/12/07 00:42:37;;;;;;;12.98;7.18;;;;;;;2.84;100.00;101851.91;4828478;29;20183;-66
2023/12/07 00:45:25;;;;;;;13.88;7.28;;;;;;;2.81;100.00;101846.06;4825254;29;20103;-67
2023/12/07 00:48:13;;;;;;;12.63;6.80;;;;;;;2.75;100.00;101848.50;4840439;29;20042;-66
2023/12/07 00:51:01;;;;;;;11.57;6.47;;;;;;;2.74;100.00;101856.75;4843302;29;20052;-65
2023/12/07 00:53:49;;;;;;;10.70;6.95;;;;;;;2.77;100.00;101853.69;4838625;29;20061;-66
2023/12/07 00:56:37;;;;;;;17.23;6.93;;;;;;;2.75;100.00;101864.66;4811803;29;20050;-65
2023/12/07 00:59:25;;;;;;;13.95;7.45;;;;;;;2.76;100.00;101860.09;4825168;29;20046;-66
2023/12/07 01:02:13;;;;;;;14.65;6.88;;;;;;;2.81;100.00;101854.97;4812499;29;20051;-66
2023/12/07 01:05:01;;;;;;;9.73;6.35;;;;;;;2.85;100.00;101850.88;4812828;29;20431;-65
2023/12/07 01:07:49;;;;;;;10.88;6.50;;;;;;;2.88;100.00;101850.47;4825141;29;20061;-65
2023/12/07 01:10:37;;;;;;;9.65;6.50;;;;;;;2.91;100.00;101855.50;4812719;29;20055;-65
2023/12/07 01:13:25;;;;;;;11.30;6.72;;;;;;;2.91;100.00;101855.50;4840640;29;20521;-65
2023/12/07 01:16:13;;;;;;;10.70;6.50;;;;;;;2.92;100.00;101859.84;4841044;29;20065;-65
2023/12/07 01:19:01;;;;;;;11.77;8.18;;;;;;;2.92;100.00;101857.16;4843493;29;20415;-66
2023/12/07 01:21:49;;;;;;;11.45;7.43;;;;;;;2.92;100.00;101859.84;4841568;29;20049;-65
2023/12/07 01:24:37;;;;;;;11.32;7.22;;;;;;;2.91;100.00;101868.97;4843581;29;20049;-66
2023/12/07 01:27:25;;;;;;;12.63;8.02;;;;;;;2.92;100.00;101865.22;4827366;29;20069;-66
2023/12/07 01:30:15;;;;;;;12.77;8.30;;;;;;;2.92;100.00;101859.84;4836076;29;20507;-66
2023/12/07 01:33:03;;;;;;;11.93;7.85;;;;;;;2.92;100.00;101872.47;4841397;29;20053;-68
2023/12/07 01:35:51;;;;;;;11.77;7.15;;;;;;;2.92;100.00;101862.53;4834099;29;20175;-66
2023/12/07 01:38:39;;;;;;;13.27;7.50;;;;;;;2.92;100.00;101865.22;4841415;29;20515;-66
2023/12/07 01:41:28;;;;;;;12.18;7.70;;;;;;;2.93;100.00;101874.13;4842288;29;20128;-65
2023/12/07 01:44:16;;;;;;;10.77;7.45;;;;;;;2.92;100.00;101865.22;4844137;29;20158;-68
2023/12/07 01:47:05;;;;;;;10.88;7.05;;;;;;;2.94;100.00;101868.56;4824317;29;20054;-66
2023/12/07 01:49:53;;;;;;;11.23;7.13;;;;;;;2.94;100.00;101875.81;4825419;29;20536;-65
2023/12/07 01:52:45;;;;;;;11.13;7.20;;;;;;;2.92;100.00;101876.00;4840026;29;20061;-66
2023/12/07 01:55:34;;;;;;;12.70;8.27;;;;;;;2.88;100.00;101874.72;4821900;29;20106;-65
2023/12/07 01:58:22;;;;;;;11.80;7.45;;;;;;;2.79;100.00;101873.19;4825701;29;20129;-65
2023/12/07 02:01:13;;;;;;;13.10;7.75;;;;;;;2.70;100.00;101882.41;4812944;29;20064;-66
2023/12/07 02:04:01;;;;;;;12.45;7.53;;;;;;;2.60;100.00;101881.84;4827648;29;20043;-66
2023/12/07 02:06:49;;;;;;;12.65;7.35;;;;;;;2.58;100.00;101883.91;4830029;29;20087;-66
2023/12/07 02:09:38;;;;;;;11.48;7.55;;;;;;;2.61;100.00;101883.53;4839998;29;20427;-68
2023/12/07 02:12:29;;;;;;;12.23;7.60;;;;;;;2.65;100.00;101879.44;4827903;29;20100;-65
2023/12/07 02:15:17;;;;;;;12.23;8.10;;;;;;;2.68;100.00;101879.88;4835565;29;20069;-61
2023/12/07 02:18:32;;;;;;;13.35;8.40;;;;;;;2.64;100.00;101883.13;4844123;29;20042;-59
2023/12/07 02:21:34;;;;;;;18.88;8.55;;;;;;;2.63;100.00;101876.09;4830099;29;20064;-61
2023/12/07 02:24:22;;;;;;;12.68;8.23;;;;;;;2.60;100.00;101876.47;4835188;29;20053;-66
2023/12/07 02:27:10;;;;;;;16.00;9.10;;;;;;;2.51;100.00;101873.88;4842206;29;20168;-65
2023/12/07 02:30:01;;;;;;;16.38;9.25;;;;;;;2.49;100.00;101884.00;4837858;29;20042;-66
2023/12/07 02:32:49;;;;;;;16.85;10.13;;;;;;;2.50;100.00;101888.38;4835388;29;20588;-67
2023/12/07 02:35:38;;;;;;;19.10;9.60;;;;;;;2.52;100.00;101886.31;4843105;29;20050;-66
2023/12/07 02:38:27;;;;;;;16.90;10.38;;;;;;;2.53;100.00;101885.31;4822871;29;20065;-66
2023/12/07 02:41:15;;;;;;;17.42;10.18;;;;;;;2.53;100.00;101882.59;4824694;29;20523;-64
2023/12/07 02:44:03;;;;;;;14.88;9.57;;;;;;;2.55;100.00;101882.44;4819274;29;20062;-64
2023/12/07 02:46:51;;;;;;;18.20;9.75;;;;;;;2.55;100.00;101875.19;4837668;29;20058;-66
2023/12/07 02:49:39;;;;;;;18.25;10.57;;;;;;;2.53;100.00;101873.72;4836542;29;20060;-65
2023/12/07 02:52:27;;;;;;;19.83;10.35;;;;;;;2.51;100.00;101879.28;4841901;29;20050;-65
2023/12/07 02:55:15;;;;;;;16.83;11.30;;;;;;;2.48;100.00;101868.91;4825216;29;20179;-65
2023/12/07 02:58:03;;;;;;;16.75;10.90;;;;;;;2.43;100.00;101865.94;4833975;29;20190;-65
2023/12/07 03:00:54;;;;;;;14.25;9.32;;;;;;;2.40;100.00;101874.38;4840021;29;20054;-65
2023/12/07 03:03:42;;;;;;;15.63;9.70;;;;;;;2.39;100.00;101866.50;4832691;29;20500;-65
2023/12/07 03:06:31;;;;;;;17.15;9.30;;;;;;;2.41;100.00;101873.34;4824494;29;20114;-64
2023/12/07 03:09:19;;;;;;;13.23;9.10;;;;;;;2.40;100.00;101868.97;4823620;29;20086;-66
2023/12/07 03:12:07;;;;;;;12.77;8.10;;;;;;;2.44;100.00;101864.91;4832965;29;20146;-65
2023/12/07 03:14:55;;;;;;;13.02;8.07;;;;;;;2.45;100.00;101873.81;4824510;29;20117;-64
2023/12/07 03:17:43;;;;;;;11.95;8.40;;;;;;;2.43;100.00;101863.25;4829929;29;20054;-65
2023/12/07 03:20:32;;;;;;;10.75;7.55;;;;;;;2.41;100.00;101870.66;4841500;29;20058;-66
2023/12/07 03:23:20;;;;;;;14.65;9.02;;;;;;;2.41;100.00;101873.34;4840257;29;20511;-65
2023/12/07 03:26:08;;;;;;;13.52;8.70;;;;;;;2.43;100.00;101870.47;4824254;29;20050;-64
2023/12/07 03:28:56;;;;;;;13.23;8.98;;;;;;;2.43;100.00;101884.78;4835756;29;20053;-65
2023/12/07 03:31:44;;;;;;;12.68;8.40;;;;;;;2.45;100.00;101880.00;4836921;29;20503;-65
2023/12/07 03:34:32;;;;;;;14.02;8.32;;;;;;;2.44;100.00;101874.84;4834035;29;20046;-64
2023/12/07 03:37:20;;;;;;;13.15;9.13;;;;;;;2.41;100.00;101883.28;4835775;29;20143;-64
2023/12/07 03:40:08;;;;;;;11.30;8.45;;;;;;;2.39;100.00;101880.78;4841467;29;20523;-64
2023/12/07 03:42:56;;;;;;;14.63;9.52;;;;;;;2.37;100.00;101884.69;4840680;29;20415;-65
2023/12/07 03:45:44;;;;;;;14.20;9.95;;;;;;;2.32;100.00;101882.53;4841300;29;20053;-65
2023/12/07 03:48:33;;;;;;;13.30;9.63;;;;;;;2.29;100.00;101891.00;4821673;29;20058;-67
2023/12/07 03:51:21;;;;;;;13.30;9.27;;;;;;;2.29;100.00;101889.13;4824355;29;20054;-67
2023/12/07 03:54:09;;;;;;;12.30;8.90;;;;;;;2.29;100.00;101886.44;4824146;29;20168;-66
2023/12/07 03:56:57;;;;;;;13.15;9.98;;;;;;;2.29;100.00;101882.94;4797668;29;20469;-69
2023/12/07 03:59:46;;;;;;;13.73;8.85;;;;;;;2.28;100.00;101894.69;4841083;29;20056;-65
2023/12/07 04:02:34;;;;;;;12.70;8.73;;;;;;;2.25;100.00;101900.44;4816042;29;20062;-64
2023/12/07 04:05:22;;;;;;;12.93;8.93;;;;;;;2.24;100.00;101901.47;4821716;29;20047;-65
2023/12/07 04:08:10;;;;;;;14.98;9.20;;;;;;;2.21;100.00;101909.91;4823415;29;20062;-64
2023/12/07 04:10:58;;;;;;;13.05;9.23;;;;;;;2.22;100.00;101911.59;4839402;29;20133;-65
2023/12/07 04:13:47;;;;;;;11.68;8.77;;;;;;;2.22;100.00;101911.59;4826182;29;20062;-65
2023/12/07 04:16:36;;;;;;;12.32;7.78;;;;;;;2.23;100.00;101907.84;4822018;29;20061;-64
2023/12/07 04:19:24;;;;;;;14.73;9.82;;;;;;;2.21;100.00;101910.72;4824487;29;20076;-65
2023/12/07 04:22:12;;;;;;;12.35;8.35;;;;;;;2.22;100.00;101908.91;4826300;29;20050;-65
2023/12/07 04:25:00;;;;;;;11.27;8.15;;;;;;;2.21;100.00;101913.41;4815213;29;20061;-65
2023/12/07 04:27:48;;;;;;;11.52;7.60;;;;;;;2.23;100.00;101918.63;4841531;29;20068;-66
2023/12/07 04:30:37;;;;;;;11.18;8.35;;;;;;;2.20;100.00;101913.63;4844432;29;20058;-65
2023/12/07 04:33:25;;;;;;;10.95;7.38;;;;;;;2.21;100.00;101920.66;4843022;29;20091;-65
2023/12/07 04:36:13;;;;;;;11.75;8.18;;;;;;;2.23;100.00;101918.63;4841720;29;20101;-64
2023/12/07 04:39:01;;;;;;;12.85;8.85;;;;;;;2.20;100.00;101924.38;4836195;29;20065;-65
2023/12/07 04:41:49;;;;;;;11.55;8.45;;;;;;;2.19;100.00;101906.56;4826160;29;20150;-65
2023/12/07 04:44:37;;;;;;;11.40;8.45;;;;;;;2.21;100.00;101910.72;4831206;29;20054;-65
2023/12/07 04:47:27;;;;;;;10.38;7.70;;;;;;;2.24;100.00;101920.31;4848336;29;20142;-65
2023/12/07 04:50:16;;;;;;;12.88;9.00;;;;;;;2.23;100.00;101919.44;4847210;29;20062;-64
2023/12/07 04:53:04;;;;;;;11.85;8.10;;;;;;;2.24;100.00;101925.69;4831423;29;20065;-64
2023/12/07 04:55:52;;;;;;;12.27;7.85;;;;;;;2.22;100.00;101916.97;4813220;29;20070;-64
2023/12/07 04:58:40;;;;;;;11.77;8.82;;;;;;;2.22;100.00;101916.97;4825085;29;20129;-65
2023/12/07 05:01:28;;;;;;;11.75;8.60;;;;;;;2.20;100.00;101914.44;4834108;29;20049;-65
2023/12/07 05:04:16;;;;;;;10.43;7.47;;;;;;;2.22;100.00;101923.16;4826835;29;20421;-64
2023/12/07 05:07:04;;;;;;;10.13;7.20;;;;;;;2.26;100.00;101912.84;4825519;29;20419;-64
2023/12/07 05:09:52;;;;;;;11.88;8.35;;;;;;;2.32;100.00;101915.66;4824974;29;20050;-64
2023/12/07 05:12:41;;;;;;;13.93;9.48;;;;;;;2.42;100.00;101912.66;4819552;29;20098;-63
2023/12/07 05:15:28;;;;;;;15.38;10.73;;;;;;;2.33;100.00;101905.72;4843397;29;20054;-64
2023/12/07 05:18:16;;;;;;;15.50;11.52;;;;;;;2.27;100.00;101904.63;4826133;29;20057;-65
2023/12/07 05:21:05;;;;;;;16.67;12.45;;;;;;;2.25;100.00;101897.75;4813415;29;20047;-65
2023/12/07 05:23:53;;;;;;;14.68;10.13;;;;;;;2.19;100.00;101898.50;4835198;29;20045;-65
2023/12/07 05:26:48;;;;;;;17.92;12.50;;;;;;;2.13;100.00;101908.97;4843762;29;20132;-64
2023/12/07 05:29:36;;;;;;;17.02;12.93;;;;;;;2.11;100.00;101907.47;4840200;29;20189;-64
2023/12/07 05:32:26;;;;;;;17.27;13.00;;;;;;;2.16;100.00;101901.56;4846266;29;20615;-64
2023/12/07 05:35:15;;;;;;;11.25;8.77;;;;;;;2.13;100.00;101900.91;4841290;29;20195;-65
2023/12/07 05:38:03;;;;;;;10.25;7.13;;;;;;;2.23;100.00;101897.09;4843704;29;20110;-64
2023/12/07 05:40:51;;;;;;;12.20;9.60;;;;;;;2.18;100.00;101894.16;4832380;29;20058;-65
2023/12/07 05:43:44;;;;;;;10.75;8.07;;;;;;;2.16;100.00;101890.81;4837671;29;20183;-66
2023/12/07 05:46:32;;;;;;;13.43;10.45;;;;;;;2.11;100.00;101897.56;4830540;29;20050;-65
2023/12/07 05:49:22;;;;;;;12.40;9.40;;;;;;;2.21;100.00;101885.69;4824005;29;20109;-64
2023/12/07 05:52:10;;;;;;;10.73;7.82;;;;;;;2.13;100.00;101890.16;4824679;29;20081;-65
2023/12/07 05:54:58;;;;;;;11.88;8.88;;;;;;;2.11;100.00;101891.34;4828910;29;20062;-64
2023/12/07 05:57:46;;;;;;;13.38;10.20;;;;;;;2.06;100.00;101878.47;4844782;29;20128;-64
2023/12/07 06:00:34;;;;;;;12.85;10.55;;;;;;;2.04;100.00;101885.88;4162038;29;10000052;-66
2023/12/07 06:03:22;;;;;;;11.00;8.15;;;;;;;2.07;100.00;101887.41;4820453;29;20058;-65
2023/12/07 06:06:11;;;;;;;10.70;8.05;;;;;;;2.08;100.00;101879.13;4824065;29;20057;-64
2023/12/07 06:08:59;;;;;;;11.18;8.23;;;;;;;2.18;100.00;101888.78;4821441;29;20143;-65
2023/12/07 06:11:47;;;;;;;12.00;8.57;;;;;;;2.10;100.00;101882.47;4832498;29;20061;-66
2023/12/07 06:14:36;;;;;;;11.93;9.23;;;;;;;2.05;100.00;101879.50;4821463;29;20039;-66
2023/12/07 06:17:24;;;;;;;12.50;9.65;;;;;;;2.07;100.00;101877.47;4820495;29;20054;-66
2023/12/07 06:20:12;;;;;;;11.40;8.80;;;;;;;2.06;100.00;101886.53;4823381;29;20058;-66
2023/12/07 06:23:00;;;;;;;11.13;8.55;;;;;;;1.95;100.00;101895.06;4822337;29;20050;-65
2023/12/07 06:25:49;;;;;;;10.35;7.97;;;;;;;1.94;100.00;101901.44;4839106;29;20058;-65
2023/12/07 06:28:37;;;;;;;11.18;8.50;;;;;;;1.96;100.00;101903.97;4845232;29;20073;-60
2023/12/07 06:31:26;;;;;;;10.93;8.65;;;;;;;1.99;100.00;101912.47;4853669;29;20054;-65
2023/12/07 06:34:14;;;;;;;10.85;8.20;;;;;;;1.95;100.00;101911.19;4837324;29;20137;-64
2023/12/07 06:37:02;;;;;;;11.15;8.38;;;;;;;1.88;100.00;101910.28;4823522;29;20066;-65
2023/12/07 06:39:50;;;;;;;11.93;8.73;;;;;;;1.81;100.00;101899.41;4835031;29;20059;-62
2023/12/07 06:42:39;;;;;;;12.00;9.00;;;;;;;1.85;100.00;101902.56;4846291;29;20162;-58
2023/12/07 06:45:27;;;;;;;9.68;6.90;;;;;;;1.93;100.00;101902.50;4849491;29;20194;-68
2023/12/07 06:48:15;;;;;;;9.57;7.15;;;;;;;1.86;100.00;101902.38;4839689;29;20307;-66
2023/12/07 06:51:04;;;;;;;9.63;7.75;;;;;;;1.86;100.00;101901.56;4812572;29;20058;-66
2023/12/07 06:53:52;;;;;;;10.90;7.90;;;;;;;1.86;100.00;101904.25;4819361;29;20046;-66
2023/12/07 06:56:40;;;;;;;11.55;8.45;;;;;;;1.86;100.00;101897.00;4819773;29;20195;-67
2023/12/07 06:59:28;;;;;;;9.07;6.60;;;;;;;1.95;100.00;101892.38;4827427;29;20178;-64
2023/12/07 07:02:16;;;;;;;9.65;6.43;;;;;;;1.98;100.00;101889.31;4823562;29;20054;-67
2023/12/07 07:05:05;;;;;;;13.02;8.90;;;;;;;1.95;100.00;101884.31;4820321;29;20058;-67
2023/12/07 07:07:55;;;;;;;11.70;8.50;;;;;;;1.95;100.00;101894.22;4820337;29;20058;-62
2023/12/07 07:10:45;;;;;;;10.15;7.43;;;;;;;1.84;100.00;101887.47;4832903;29;20214;-65
2023/12/07 07:13:33;;;;;;;11.25;7.57;;;;;;;1.84;100.00;101882.09;4837908;29;20049;-65
2023/12/07 07:16:21;;;;;;;11.98;9.35;;;;;;;1.84;100.00;101884.78;4838864;29;20141;-64
2023/12/07 07:19:10;;;;;;;12.20;9.55;;;;;;;1.88;100.00;101884.22;4821354;29;20065;-64
2023/12/07 07:21:58;;;;;;;11.55;8.90;;;;;;;1.93;100.00;101886.34;4827975;29;20423;-67
2023/12/07 07:24:47;;;;;;;12.32;9.50;;;;;;;1.94;100.00;101879.97;4825414;29;20572;-65
2023/12/07 07:27:35;;;;;;;13.13;9.77;;;;;;;1.91;100.00;101877.66;4837994;29;20053;-65
2023/12/07 07:30:23;;;;;;;23.90;9.80;;;;;;;1.94;100.00;101871.88;4838044;29;20133;-66
2023/12/07 07:33:11;;;;;;;12.13;9.38;;;;;;;1.94;100.00;101877.25;4821590;29;20129;-65
2023/12/07 07:35:59;;;;;;;12.70;9.73;;;;;;;1.92;100.00;101890.91;4821121;29;20062;-65
2023/12/07 07:38:48;;;;;;;12.15;8.60;;;;;;;1.93;100.00;101894.44;4820694;29;20195;-66
2023/12/07 07:41:36;;;;;;;12.07;8.30;;;;;;;1.91;100.00;101893.78;4820448;29;20090;-66
2023/12/07 07:44:24;;;;;;;11.85;9.10;;;;;;;1.88;100.00;101894.16;4827908;29;20049;-66
2023/12/07 07:47:12;;;;;;;13.90;9.60;;;;;;;1.91;100.00;101899.16;4835831;29;20524;-65
2023/12/07 07:50:05;;;;;;;13.48;9.77;;;;;;;1.83;100.00;101905.44;4820253;29;20050;-67
2023/12/07 07:52:53;;;;;;;15.38;10.18;;;;;;;1.74;100.00;101913.75;4807338;29;20054;-67
2023/12/07 07:55:42;;;;;;;14.43;9.77;;;;;;;1.75;100.00;101904.69;4832574;29;20050;-65
2023/12/07 07:58:30;;;;;;;15.70;10.85;;;;;;;1.75;100.00;101910.06;4844572;29;20053;-65
2023/12/07 08:01:18;;;;;;;13.48;10.25;;;;;;;1.78;100.00;101901.63;4825337;29;20054;-65
2023/12/07 08:04:07;;;;;;;14.68;10.20;;;;;;;1.83;100.00;101901.94;4827109;29;20146;-64
2023/12/07 08:06:55;;;;;;;14.07;10.30;;;;;;;1.88;100.00;101907.59;4812797;29;20053;-65
2023/12/07 08:09:43;;;;;;;16.75;11.20;;;;;;;1.92;100.00;101900.78;4825809;29;20117;-65
2023/12/07 08:12:31;;;;;;;17.13;12.40;;;;;;;1.94;100.00;101897.94;4827192;29;20054;-65
2023/12/07 08:15:20;;;;;;;17.35;12.25;;;;;;;1.97;100.00;101901.06;4828033;29;20091;-65
2023/12/07 08:18:09;;;;;;;24.85;15.30;;;;;;;1.96;100.00;101891.34;4826081;29;20046;-66
2023/12/07 08:20:57;;;;;;;21.38;14.07;;;;;;;1.95;100.00;101896.91;4827639;29;20050;-65
2023/12/07 08:23:45;;;;;;;25.88;16.48;;;;;;;2.01;100.00;101894.31;4833009;29;20129;-63
2023/12/07 08:26:33;;;;;;;26.17;16.90;;;;;;;1.96;100.00;101896.72;4830690;29;20080;-66
2023/12/07 08:29:21;;;;;;;20.45;10.85;;;;;;;2.01;100.00;101899.69;4825973;29;20062;-67
2023/12/07 08:32:09;;;;;;;23.58;15.32;;;;;;;2.10;100.00;101903.16;4826415;29;20058;-70
2023/12/07 08:34:57;;;;;;;20.58;13.27;;;;;;;2.11;100.00;101905.63;4826070;29;20054;-68
2023/12/07 08:37:45;;;;;;;24.17;13.85;;;;;;;2.11;100.00;101905.63;4813971;29;20058;-66
2023/12/07 08:40:34;;;;;;;16.30;12.00;;;;;;;2.00;100.00;101894.53;4825902;29;20110;-66
2023/12/07 08:43:25;;;;;;;18.83;13.10;;;;;;;1.83;100.00;101893.88;4825154;29;20054;-65
2023/12/07 08:46:13;;;;;;;17.33;11.55;;;;;;;1.80;100.00;101896.91;4826569;29;20065;-66
2023/12/07 08:49:02;;;;;;;15.18;11.50;;;;;;;1.82;100.00;101900.25;4826102;29;20061;-66
2023/12/07 08:51:50;;;;;;;18.38;12.43;;;;;;;1.83;100.00;101896.56;4817048;29;20055;-66
2023/12/07 08:54:58;;;;;;;16.77;12.38;;;;;;;1.79;100.00;101897.94;4843243;29;20076;-66
2023/12/07 08:57:47;;;;;;;16.13;12.02;;;;;;;1.68;100.00;101894.69;4831108;29;20198;-66
2023/12/07 09:00:35;;;;;;;18.70;12.13;;;;;;;1.70;100.00;101897.16;4843541;29;20050;-66
2023/12/07 09:03:27;;;;;;;16.05;11.65;;;;;;;1.79;100.00;101898.75;4836896;29;20177;-65
2023/12/07 09:06:15;;;;;;;17.98;12.60;;;;;;;1.88;100.00;101896.84;4813381;29;20114;-65
2023/12/07 09:09:04;;;;;;;17.63;12.30;;;;;;;1.95;100.00;101892.38;4827011;29;20058;-66
2023/12/07 09:11:53;;;;;;;16.88;12.15;;;;;;;1.98;100.00;101888.50;4813798;29;20081;-66
2023/12/07 09:14:41;;;;;;;17.02;12.13;;;;;;;2.01;100.00;101888.94;4826043;29;20134;-64
2023/12/07 09:17:29;;;;;;;18.27;13.05;;;;;;;2.01;100.00;101883.56;4825077;29;20054;-65
2023/12/07 09:20:17;;;;;;;17.58;12.05;;;;;;;2.02;100.00;101887.09;4838452;29;20058;-67
2023/12/07 09:23:05;;;;;;;17.92;12.82;;;;;;;2.05;100.00;101884.88;4825813;29;20054;-65
2023/12/07 09:25:53;;;;;;;17.45;12.93;;;;;;;2.06;100.00;101881.16;4825793;29;20058;-65
2023/12/07 09:28:41;;;;;;;21.20;14.95;;;;;;;2.02;100.00;101879.88;4828827;29;20559;-65
2023/12/07 09:31:29;;;;;;;20.52;15.38;;;;;;;1.87;100.00;101887.09;4825276;29;20054;-65
2023/12/07 09:34:18;;;;;;;23.73;16.55;;;;;;;1.82;100.00;101878.75;4824960;29;20575;-65
2023/12/07 09:37:09;;;;;;;21.92;15.32;;;;;;;1.82;100.00;101884.13;4825692;29;20053;-66
2023/12/07 09:39:58;;;;;;;22.17;14.63;;;;;;;1.91;100.00;101888.41;4819559;29;20046;-66
2023/12/07 09:42:50;;;;;;;21.23;15.57;;;;;;;1.96;100.00;101877.91;4843091;29;20048;-65
2023/12/07 09:45:38;;;;;;;20.92;15.45;;;;;;;1.98;100.00;101873.19;4843017;29;20488;-65
2023/12/07 09:48:26;;;;;;;21.25;14.52;;;;;;;1.99;100.00;101866.78;4843182;29;20190;-65
2023/12/07 09:51:15;;;;;;;22.70;15.65;;;;;;;2.03;100.00;101868.09;4841904;29;20057;-66
2023/12/07 09:54:05;;;;;;;22.35;15.10;;;;;;;2.04;100.00;101856.31;4828007;29;20523;-65
2023/12/07 09:56:54;;;;;;;17.55;12.93;;;;;;;2.05;100.00;101867.94;4841825;29;20054;-66
2023/12/07 09:59:42;;;;;;;20.95;14.15;;;;;;;2.08;100.00;101857.63;4844995;29;20085;-67
2023/12/07 10:02:30;;;;;;;20.67;14.90;;;;;;;2.11;100.00;101856.41;4841392;29;20117;-66
2023/12/07 10:05:19;;;;;;;21.48;15.10;;;;;;;2.13;100.00;101847.13;4824586;29;20058;-66
2023/12/07 10:08:07;;;;;;;19.35;14.82;;;;;;;2.16;100.00;101840.53;4825440;29;20054;-66
2023/12/07 10:11:07;;;;;;;20.02;14.23;;;;;;;2.19;100.00;101836.66;4824559;29;20511;-66
2023/12/07 10:13:55;;;;;;;21.35;13.50;;;;;;;2.21;100.00;101829.22;4824691;29;20408;-66
2023/12/07 10:16:57;;;;;;;21.88;14.82;;;;;;;2.22;100.00;101820.16;4825396;29;20062;-65
2023/12/07 10:19:45;;;;;;;19.52;14.25;;;;;;;2.19;100.00;101815.13;4828740;29;20050;-65
2023/12/07 10:22:33;;;;;;;19.42;13.32;;;;;;;2.15;100.00;101812.00;4841761;29;20046;-66
2023/12/07 10:25:22;;;;;;;18.60;12.23;;;;;;;2.18;100.00;101808.09;4842669;29;20057;-66
2023/12/07 10:28:14;;;;;;;18.40;12.75;;;;;;;2.23;100.00;101800.31;4834962;29;20054;-65
2023/12/07 10:31:02;;;;;;;16.75;12.68;;;;;;;2.27;100.00;101796.22;4824772;29;20150;-66
2023/12/07 10:33:50;;;;;;;18.52;12.20;;;;;;;2.32;100.00;101794.63;4824160;29;20054;-66
2023/12/07 10:36:38;;;;;;;18.63;12.50;;;;;;;2.37;100.00;101785.16;4825658;29;20058;-65
2023/12/07 10:39:29;;;;;;;20.77;13.23;;;;;;;2.42;100.00;101780.06;4824687;29;20051;-66
2023/12/07 10:42:25;;;;;;;17.88;12.90;;;;;;;2.44;100.00;101765.38;4831425;29;20062;-64
2023/12/07 10:45:15;;;;;;;20.08;14.27;;;;;;;2.47;100.00;101767.69;4831481;29;20500;-64
2023/12/07 10:48:06;;;;;;;19.40;13.93;;;;;;;2.49;100.00;101762.94;4848989;29;20064;-63
2023/12/07 10:50:56;;;;;;;17.85;13.60;;;;;;;2.50;100.00;101756.56;4848970;29;20130;-63
2023/12/07 10:53:45;;;;;;;17.85;12.45;;;;;;;2.53;100.00;101761.56;4837777;29;20130;-63
2023/12/07 10:56:42;;;;;;;15.55;11.85;;;;;;;2.55;100.00;101754.13;4829286;29;20089;-65
2023/12/07 10:59:30;;;;;;;16.42;11.38;;;;;;;2.59;100.00;101753.75;4826192;29;20054;-63
2023/12/07 11:02:22;;;;;;;13.90;10.93;;;;;;;2.64;100.00;101748.59;4823814;29;20057;-58
2023/12/07 11:05:11;;;;;;;16.60;11.88;;;;;;;2.67;100.00;101742.84;4839387;29;20046;-58
2023/12/07 11:08:07;;;;;;;16.90;11.93;;;;;;;2.68;100.00;101745.34;4834897;29;20050;-66
2023/12/07 11:11:08;;;;;;;17.10;11.70;;;;;;;2.69;100.00;101727.34;4823525;29;20057;-64
2023/12/07 11:14:02;;;;;;;16.80;11.32;;;;;;;2.67;100.00;101741.00;4823444;29;20389;-64
2023/12/07 11:16:53;;;;;;;14.85;10.65;;;;;;;2.68;100.00;101739.13;4823530;29;20089;-65
2023/12/07 11:19:44;;;;;;;15.18;10.70;;;;;;;2.71;100.00;101736.88;4812165;29;20050;-66
2023/12/07 11:22:32;;;;;;;15.80;11.00;;;;;;;2.73;100.00;101725.94;4823645;29;20129;-63
2023/12/07 11:25:20;;;;;;;16.95;10.77;;;;;;;2.75;100.00;101715.81;4810673;29;20050;-65
2023/12/07 11:28:10;;;;;;;15.70;10.45;;;;;;;2.79;100.00;101714.41;4823949;29;20054;-68
2023/12/07 11:30:58;;;;;;;13.45;10.25;;;;;;;2.80;100.00;101705.28;4825568;29;20046;-67
2023/12/07 11:33:47;;;;;;;12.80;10.07;;;;;;;2.80;100.00;101702.59;4823320;29;20061;-64
2023/12/07 11:36:37;;;;;;;17.00;11.25;;;;;;;2.82;100.00;101697.03;4840786;29;20562;-65
2023/12/07 11:39:26;;;;;;;15.15;10.90;;;;;;;2.82;100.00;101692.47;4841046;29;20061;-64
2023/12/07 11:42:19;;;;;;;15.75;11.55;;;;;;;2.84;100.00;101687.72;4841161;29;20053;-64
2023/12/07 11:45:08;;;;;;;16.33;12.00;;;;;;;2.84;100.00;101685.03;4839757;29;20128;-65
2023/12/07 11:48:10;;;;;;;17.77;12.02;;;;;;;2.84;100.00;101679.66;4839912;29;20097;-64
2023/12/07 11:51:04;;;;;;;17.23;13.00;;;;;;;2.85;100.00;101673.22;4823550;29;20137;-64
2023/12/07 11:53:52;;;;;;;16.30;11.98;;;;;;;2.87;100.00;101665.81;4812192;29;20567;-65
2023/12/07 11:56:41;;;;;;;16.15;12.60;;;;;;;2.96;100.00;101656.56;4826482;29;20054;-65
2023/12/07 11:59:29;;;;;;;16.67;13.18;;;;;;;2.97;100.00;101660.91;4798792;29;20567;-65
2023/12/07 12:02:21;;;;;;;17.92;13.55;;;;;;;2.99;100.00;101648.06;4825369;29;20038;-65
2023/12/07 12:05:10;;;;;;;18.23;12.98;;;;;;;2.99;100.00;101645.38;4840829;29;20149;-64
2023/12/07 12:07:58;;;;;;;17.50;13.52;;;;;;;3.02;100.00;101643.34;4840240;29;20182;-65
2023/12/07 12:10:48;;;;;;;18.63;13.55;;;;;;;3.02;100.00;101651.41;4841140;29;20068;-65
2023/12/07 12:13:38;;;;;;;17.40;13.07;;;;;;;3.05;100.00;101648.31;4838565;29;20046;-66
2023/12/07 12:16:26;;;;;;;18.00;13.90;;;;;;;3.07;100.00;101648.94;4831648;29;20058;-65
2023/12/07 12:19:14;;;;;;;16.88;12.88;;;;;;;3.09;100.00;101646.91;4821861;29;20046;-64
2023/12/07 12:22:12;;;;;;;19.55;13.18;;;;;;;3.10;100.00;101637.78;4823625;29;20078;-65
2023/12/07 12:25:01;;;;;;;17.08;12.88;;;;;;;3.10;100.00;101643.16;4823666;29;20091;-65
2023/12/07 12:27:49;;;;;;;16.33;12.70;;;;;;;3.11;100.00;101631.38;4821646;29;20057;-65
2023/12/07 12:30:38;;;;;;;18.70;13.70;;;;;;;3.12;100.00;101619.56;4822964;29;20080;-65
2023/12/07 12:33:26;;;;;;;19.10;14.15;;;;;;;3.16;100.00;101604.69;4809709;29;20061;-65
2023/12/07 12:36:14;;;;;;;18.20;13.57;;;;;;;3.22;100.00;101605.75;4823057;29;20054;-66
2023/12/07 12:39:04;;;;;;;19.42;14.52;;;;;;;3.24;100.00;101601.81;4823265;29;20533;-67
2023/12/07 12:41:55;;;;;;;23.20;15.45;;;;;;;3.27;100.00;101608.66;4827100;29;20053;-66
2023/12/07 12:44:44;;;;;;;21.38;15.90;;;;;;;3.29;100.00;101601.22;4824900;29;20508;-65
2023/12/07 12:47:34;;;;;;;21.73;16.40;;;;;;;3.25;100.00;101587.34;4826111;29;20127;-66
2023/12/07 12:50:40;;;;;;;25.02;19.13;;;;;;;3.16;100.00;101577.75;4824647;29;20058;-65
2023/12/07 12:53:28;;;;;;;24.35;18.90;;;;;;;3.14;100.00;101577.94;4824911;29;20054;-66